createdAt,value
2018-02-10T00:01:30.365Z,7.10
2018-02-10T00:03:02.185Z,7.00
2018-02-10T00:04:34.005Z,6.30
2018-02-10T00:06:05.827Z,7.70
2018-02-10T00:07:37.643Z,8.60
2018-02-10T00:09:09.563Z,8.50
2018-02-10T00:10:41.282Z,6.20
2018-02-10T00:12:13.101Z,6.90
2018-02-10T00:13:44.921Z,7.00
2018-02-10T00:15:16.841Z,7.60
2018-02-10T00:16:48.560Z,6.90
2018-02-10T00:18:20.379Z,7.80
2018-02-10T00:19:52.199Z,8.70
2018-02-10T00:21:24.020Z,7.70
2018-02-10T00:22:55.838Z,8.00
2018-02-10T00:24:27.660Z,8.50
2018-02-10T00:25:59.477Z,8.20
2018-02-10T00:27:31.397Z,7.60
2018-02-10T00:29:03.118Z,7.10
2018-02-10T00:30:34.936Z,8.40
2018-02-10T00:32:06.756Z,7.30
2018-02-10T00:33:38.576Z,7.70
2018-02-10T00:35:10.396Z,8.70
2018-02-10T00:36:42.216Z,7.70
2018-02-10T00:38:14.035Z,8.20
2018-02-10T00:39:45.856Z,8.30
2018-02-10T00:41:17.674Z,9.30
2018-02-10T00:42:49.494Z,8.10
2018-02-10T00:44:21.313Z,10.00
2018-02-10T00:45:53.383Z,8.30
2018-02-10T00:47:24.952Z,8.00
2018-02-10T00:48:56.771Z,11.60
2018-02-10T00:50:28.591Z,9.80
2018-02-10T00:52:00.409Z,8.20
2018-02-10T00:53:32.228Z,7.30
2018-02-10T00:55:04.054Z,6.60
2018-02-10T00:56:35.867Z,7.00
2018-02-10T00:58:07.687Z,6.10
2018-02-10T00:59:39.505Z,6.10
2018-02-10T01:01:11.325Z,5.90
2018-02-10T01:02:43.144Z,7.40
2018-02-10T01:04:15.063Z,7.90
2018-02-10T01:05:46.782Z,6.60
2018-02-10T01:07:18.603Z,7.40
2018-02-10T01:08:50.421Z,7.70
2018-02-10T01:10:22.240Z,7.10
2018-02-10T01:11:54.060Z,7.20
2018-02-10T01:13:25.879Z,8.40
2018-02-10T01:14:57.699Z,8.00
2018-02-10T01:16:29.518Z,8.00
2018-02-10T01:18:01.338Z,8.20
2018-02-10T01:19:33.157Z,9.10
2018-02-10T01:21:04.976Z,10.60
2018-02-10T01:22:36.896Z,8.30
2018-02-10T01:24:08.614Z,8.20
2018-02-10T01:25:40.434Z,8.50
2018-02-10T01:27:12.255Z,10.20
2018-02-10T01:28:44.073Z,9.70
2018-02-10T01:30:15.892Z,8.80
2018-02-10T01:31:47.712Z,7.70
2018-02-10T01:33:19.540Z,9.10
2018-02-10T01:34:51.351Z,8.10
2018-02-10T01:36:23.227Z,10.50
2018-02-10T01:37:55.470Z,9.10
2018-02-10T01:39:26.808Z,10.20
2018-02-10T01:40:58.728Z,8.30
2018-02-10T01:42:30.448Z,8.10
2018-02-10T01:44:02.269Z,8.40
2018-02-10T01:45:34.086Z,8.60
2018-02-10T01:47:06.006Z,7.80
2018-02-10T01:48:37.725Z,9.00
2018-02-10T01:50:09.547Z,8.40
2018-02-10T01:51:41.371Z,10.30
2018-02-10T01:53:13.183Z,10.00
2018-02-10T01:54:45.003Z,7.80
2018-02-10T01:56:16.821Z,8.20
2018-02-10T01:57:48.642Z,9.80
2018-02-10T01:59:20.561Z,9.00
2018-02-10T02:00:52.281Z,9.30
2018-02-10T02:02:24.100Z,10.60
2018-02-10T02:03:55.919Z,7.70
2018-02-10T02:05:27.737Z,10.80
2018-02-10T02:06:59.557Z,9.50
2018-02-10T02:08:31.382Z,8.70
2018-02-10T02:10:03.195Z,11.90
2018-02-10T02:11:35.019Z,9.70
2018-02-10T02:13:06.833Z,9.40
2018-02-10T02:14:38.652Z,9.40
2018-02-10T02:16:10.472Z,8.00
2018-02-10T02:17:42.490Z,8.60
2018-02-10T02:19:14.109Z,8.70
2018-02-10T02:20:45.927Z,9.50
2018-02-10T02:22:17.746Z,8.80
2018-02-10T02:23:49.565Z,9.10
2018-02-10T02:25:21.392Z,11.60
2018-02-10T02:26:53.203Z,8.60
2018-02-10T02:28:25.021Z,10.10
2018-02-10T02:29:56.840Z,8.40
2018-02-10T02:31:28.659Z,10.60
2018-02-10T02:33:00.478Z,12.00
2018-02-10T02:34:32.296Z,10.20
2018-02-10T02:36:04.217Z,9.80
2018-02-10T02:37:35.935Z,11.90
2018-02-10T02:39:07.752Z,10.20
2018-02-10T02:40:39.571Z,10.20
2018-02-10T02:42:11.390Z,10.40
2018-02-10T02:43:43.210Z,8.70
2018-02-10T02:45:15.027Z,9.30
2018-02-10T02:46:46.846Z,9.90
2018-02-10T02:48:18.770Z,11.10
2018-02-10T02:49:50.490Z,8.40
2018-02-10T02:51:22.303Z,9.20
2018-02-10T02:52:54.122Z,12.70
2018-02-10T02:54:26.293Z,10.50
2018-02-10T02:55:57.758Z,10.00
2018-02-10T02:57:29.578Z,11.40
2018-02-10T02:59:01.397Z,9.90
2018-02-10T03:00:33.216Z,10.60
2018-02-10T03:02:05.034Z,9.50
2018-02-10T03:03:36.852Z,10.30
2018-02-10T03:05:08.676Z,11.00
2018-02-10T03:06:40.490Z,9.60
2018-02-10T03:08:12.308Z,10.00
2018-02-10T03:09:44.127Z,9.60
2018-02-10T03:11:15.946Z,10.40
2018-02-10T03:12:47.864Z,9.90
2018-02-10T03:14:19.583Z,12.40
2018-02-10T03:15:51.403Z,9.00
2018-02-10T03:17:23.220Z,10.60
2018-02-10T03:18:55.139Z,9.80
2018-02-10T03:20:26.857Z,11.10
2018-02-10T03:21:58.676Z,10.30
2018-02-10T03:23:30.495Z,12.20
2018-02-10T03:25:02.313Z,11.30
2018-02-10T03:26:34.132Z,11.60
2018-02-10T03:28:05.950Z,12.60
2018-02-10T03:29:37.769Z,10.60
2018-02-10T03:31:09.689Z,10.00
2018-02-10T03:32:41.405Z,10.50
2018-02-10T03:34:13.225Z,10.90
2018-02-10T03:35:45.043Z,9.20
2018-02-10T03:37:16.861Z,9.40
2018-02-10T03:38:48.680Z,8.80
2018-02-10T03:40:20.502Z,8.60
2018-02-10T03:41:52.316Z,7.80
2018-02-10T03:43:24.134Z,9.30
2018-02-10T03:44:55.953Z,8.70
2018-02-10T03:46:27.771Z,7.50
2018-02-10T03:47:59.589Z,7.70
2018-02-10T03:49:31.508Z,11.00
2018-02-10T03:51:03.226Z,8.40
2018-02-10T03:52:35.045Z,8.70
2018-02-10T03:54:06.863Z,7.10
2018-02-10T03:55:38.781Z,9.50
2018-02-10T03:57:10.499Z,6.80
2018-02-10T03:58:42.317Z,7.20
2018-02-10T04:00:14.136Z,8.40
2018-02-10T04:01:45.970Z,7.60
2018-02-10T04:03:17.772Z,8.40
2018-02-10T04:04:49.590Z,9.30
2018-02-10T04:06:21.411Z,10.00
2018-02-10T04:07:53.327Z,9.90
2018-02-10T04:09:25.045Z,10.00
2018-02-10T04:10:56.863Z,9.60
2018-02-10T04:12:28.682Z,12.00
2018-02-10T04:14:00.500Z,9.30
2018-02-10T04:15:32.318Z,10.70
2018-02-10T04:17:04.136Z,10.30
2018-02-10T04:18:35.955Z,10.40
2018-02-10T04:20:07.773Z,9.20
2018-02-10T04:21:39.591Z,11.80
2018-02-10T04:23:11.409Z,9.80
2018-02-10T04:24:43.227Z,9.40
2018-02-10T04:26:15.245Z,8.80
2018-02-10T04:27:46.862Z,11.50
2018-02-10T04:29:18.681Z,10.60
2018-02-10T04:30:50.498Z,11.30
2018-02-10T04:32:22.317Z,8.20
2018-02-10T04:33:54.134Z,9.10
2018-02-10T04:35:25.952Z,7.70
2018-02-10T04:36:57.769Z,8.70
2018-02-10T04:38:29.588Z,8.40
2018-02-10T04:40:01.409Z,8.50
2018-02-10T04:41:33.224Z,9.00
2018-02-10T04:43:05.048Z,9.20
2018-02-10T04:44:36.959Z,8.40
2018-02-10T04:46:08.679Z,9.10
2018-02-10T04:47:40.495Z,8.60
2018-02-10T04:49:12.312Z,8.10
2018-02-10T04:50:44.232Z,9.30
2018-02-10T04:52:15.949Z,9.00
2018-02-10T04:53:47.766Z,9.40
2018-02-10T04:55:19.583Z,8.10
2018-02-10T04:56:51.402Z,7.40
2018-02-10T04:58:23.220Z,8.90
2018-02-10T04:59:55.037Z,8.80
2018-02-10T05:01:26.856Z,8.50
2018-02-10T05:02:58.823Z,8.00
2018-02-10T05:04:30.490Z,9.00
2018-02-10T05:06:02.308Z,8.30
2018-02-10T05:07:34.126Z,8.30
2018-02-10T05:09:06.094Z,7.80
2018-02-10T05:10:37.761Z,7.80
2018-02-10T05:12:09.580Z,8.50
2018-02-10T05:13:41.397Z,9.80
2018-02-10T05:15:13.215Z,7.60
2018-02-10T05:16:45.033Z,8.60
2018-02-10T05:18:16.851Z,9.00
2018-02-10T05:19:48.669Z,8.00
2018-02-10T05:21:20.688Z,8.00
2018-02-10T05:22:52.304Z,8.80
2018-02-10T05:24:24.122Z,9.10
2018-02-10T05:25:55.946Z,9.60
2018-02-10T05:27:27.757Z,7.80
2018-02-10T05:28:59.575Z,8.50
2018-02-10T05:30:31.393Z,8.60
2018-02-10T05:32:03.215Z,8.70
2018-02-10T05:33:35.029Z,7.70
2018-02-10T05:35:06.846Z,7.40
2018-02-10T05:36:38.665Z,7.20
2018-02-10T05:38:10.482Z,7.70
2018-02-10T05:39:42.400Z,7.60
2018-02-10T05:41:14.118Z,7.30
2018-02-10T05:42:45.935Z,9.10
2018-02-10T05:44:17.753Z,7.60
2018-02-10T05:45:49.570Z,7.90
2018-02-10T05:47:21.389Z,6.90
2018-02-10T05:48:53.207Z,7.70
2018-02-10T05:50:25.024Z,9.50
2018-02-10T05:51:56.942Z,7.80
2018-02-10T05:53:28.660Z,8.00
2018-02-10T05:55:00.477Z,7.30
2018-02-10T05:56:32.295Z,7.00
2018-02-10T05:58:04.213Z,7.20
2018-02-10T05:59:35.930Z,7.80
2018-02-10T06:01:07.748Z,6.70
2018-02-10T06:02:39.565Z,6.80
2018-02-10T06:04:11.383Z,7.60
2018-02-10T06:05:43.200Z,7.00
2018-02-10T06:07:15.019Z,7.30
2018-02-10T06:08:46.835Z,6.60
2018-02-10T06:10:18.653Z,6.50
2018-02-10T06:11:50.471Z,6.30
2018-02-10T06:13:22.288Z,6.50
2018-02-10T06:14:54.106Z,6.10
2018-02-10T06:16:26.024Z,7.60
2018-02-10T06:17:57.743Z,6.70
2018-02-10T06:19:29.559Z,6.50
2018-02-10T06:21:01.377Z,9.10
2018-02-10T06:22:33.295Z,6.20
2018-02-10T06:24:05.012Z,6.50
2018-02-10T06:25:36.832Z,6.60
2018-02-10T06:27:08.649Z,6.00
2018-02-10T06:28:40.717Z,7.00
2018-02-10T06:30:12.283Z,7.40
2018-02-10T06:31:44.101Z,6.10
2018-02-10T06:33:15.918Z,7.00
2018-02-10T06:34:47.836Z,6.90
2018-02-10T06:36:19.554Z,6.60
2018-02-10T06:37:51.371Z,6.60
2018-02-10T06:39:23.189Z,5.80
2018-02-10T06:40:55.007Z,6.60
2018-02-10T06:42:26.824Z,6.80
2018-02-10T06:43:58.641Z,6.70
2018-02-10T06:45:30.459Z,6.30
2018-02-10T06:47:02.277Z,7.00
2018-02-10T06:48:34.094Z,8.70
2018-02-10T06:50:05.914Z,6.70
2018-02-10T06:51:37.729Z,7.30
2018-02-10T06:53:09.697Z,7.40
2018-02-10T06:54:41.365Z,8.20
2018-02-10T06:56:13.182Z,6.80
2018-02-10T06:57:45.001Z,7.00
2018-02-10T06:59:16.918Z,8.20
2018-02-10T07:00:48.635Z,7.00
2018-02-10T07:02:20.453Z,7.40
2018-02-10T07:03:52.270Z,7.20
2018-02-10T07:05:24.087Z,6.40
2018-02-10T07:06:55.905Z,6.80
2018-02-10T07:08:27.722Z,6.20
2018-02-10T07:09:59.540Z,7.90
2018-02-10T07:11:31.458Z,6.20
2018-02-10T07:13:03.175Z,7.10
2018-02-10T07:14:34.992Z,6.50
2018-02-10T07:16:06.810Z,6.50
2018-02-10T07:17:38.627Z,7.80
2018-02-10T07:19:10.445Z,8.00
2018-02-10T07:20:42.262Z,7.20
2018-02-10T07:22:14.080Z,8.40
2018-02-10T07:23:45.897Z,7.50
2018-02-10T07:25:17.714Z,7.70
2018-02-10T07:26:49.532Z,7.60
2018-02-10T07:28:21.350Z,7.40
2018-02-10T07:29:53.369Z,6.30
2018-02-10T07:31:24.989Z,8.10
2018-02-10T07:32:56.801Z,7.80
2018-02-10T07:34:28.619Z,6.70
2018-02-10T07:36:00.436Z,8.30
2018-02-10T07:37:32.254Z,7.40
2018-02-10T07:39:04.072Z,8.60
2018-02-10T07:40:35.889Z,7.80
2018-02-10T07:42:07.858Z,8.40
2018-02-10T07:43:39.524Z,9.30
2018-02-10T07:45:11.341Z,7.90
2018-02-10T07:46:43.158Z,7.80
2018-02-10T07:48:15.076Z,11.20
2018-02-10T07:49:46.794Z,8.10
2018-02-10T07:51:18.610Z,7.60
2018-02-10T07:52:50.447Z,8.80
2018-02-10T07:54:22.245Z,8.20
2018-02-10T07:55:54.063Z,8.10
2018-02-10T07:57:25.881Z,8.60
2018-02-10T07:58:57.698Z,10.30
2018-02-10T08:00:29.616Z,7.50
2018-02-10T08:02:01.334Z,7.30
2018-02-10T08:03:33.151Z,9.20
2018-02-10T08:05:04.971Z,8.60
2018-02-10T08:06:36.886Z,8.40
2018-02-10T08:08:08.604Z,8.70
2018-02-10T08:09:40.425Z,9.50
2018-02-10T08:11:12.239Z,9.60
2018-02-10T08:12:44.057Z,8.30
2018-02-10T08:14:15.875Z,9.30
2018-02-10T08:15:47.693Z,8.90
2018-02-10T08:17:19.510Z,10.20
2018-02-10T08:18:51.329Z,10.80
2018-02-10T08:20:23.162Z,12.50
2018-02-10T08:21:54.962Z,14.30
2018-02-10T08:23:26.780Z,10.00
2018-02-10T08:24:58.797Z,12.00
2018-02-10T08:26:30.415Z,10.50
2018-02-10T08:28:02.232Z,10.90
2018-02-10T08:29:34.050Z,10.80
2018-02-10T08:31:06.118Z,9.40
2018-02-10T08:32:37.684Z,9.30
2018-02-10T08:34:09.504Z,9.70
2018-02-10T08:35:41.318Z,9.10
2018-02-10T08:37:13.140Z,11.00
2018-02-10T08:38:44.959Z,11.40
2018-02-10T08:40:16.771Z,11.20
2018-02-10T08:41:48.588Z,11.90
2018-02-10T08:43:20.506Z,11.30
2018-02-10T08:44:52.223Z,14.40
2018-02-10T08:46:24.041Z,11.50
2018-02-10T08:47:55.858Z,12.00
2018-02-10T08:49:27.675Z,10.40
2018-02-10T08:50:59.492Z,11.00
2018-02-10T08:52:31.310Z,10.50
2018-02-10T08:54:03.128Z,11.10
2018-02-10T08:55:34.944Z,10.90
2018-02-10T08:57:06.762Z,12.50
2018-02-10T08:58:38.579Z,9.20
2018-02-10T09:00:10.396Z,10.60
2018-02-10T09:01:42.564Z,12.40
2018-02-10T09:03:14.030Z,10.90
2018-02-10T09:04:45.848Z,11.30
2018-02-10T09:06:17.665Z,14.20
2018-02-10T09:07:49.583Z,11.80
2018-02-10T09:09:21.300Z,11.80
2018-02-10T09:10:53.118Z,13.00
2018-02-10T09:12:24.937Z,12.70
2018-02-10T09:13:56.755Z,11.00
2018-02-10T09:15:28.570Z,12.20
2018-02-10T09:17:00.388Z,13.10
2018-02-10T09:18:32.205Z,12.70
2018-02-10T09:20:04.274Z,11.40
2018-02-10T09:21:35.841Z,11.30
2018-02-10T09:23:07.658Z,13.20
2018-02-10T09:24:39.475Z,10.60
2018-02-10T09:26:11.294Z,10.80
2018-02-10T09:27:43.111Z,11.20
2018-02-10T09:29:14.929Z,12.70
2018-02-10T09:30:46.748Z,11.70
2018-02-10T09:32:18.816Z,12.10
2018-02-10T09:33:50.384Z,11.20
2018-02-10T09:35:22.203Z,11.00
2018-02-10T09:36:54.027Z,11.20
2018-02-10T09:38:26.090Z,13.10
2018-02-10T09:39:57.681Z,14.00
2018-02-10T09:41:29.477Z,12.70
2018-02-10T09:43:01.296Z,12.70
2018-02-10T09:44:33.115Z,12.90
2018-02-10T09:46:04.934Z,10.90
2018-02-10T09:47:36.752Z,11.50
2018-02-10T09:49:08.571Z,12.50
2018-02-10T09:50:40.392Z,12.60
2018-02-10T09:52:12.235Z,11.10
2018-02-10T09:53:44.027Z,12.40
2018-02-10T09:55:15.847Z,11.40
2018-02-10T09:56:47.866Z,11.80
2018-02-10T09:58:19.484Z,14.60
2018-02-10T09:59:51.309Z,12.20
2018-02-10T10:01:23.124Z,13.70
2018-02-10T10:02:55.193Z,14.60
2018-02-10T10:04:26.761Z,12.60
2018-02-10T10:05:58.581Z,11.70
2018-02-10T10:07:30.400Z,13.10
2018-02-10T10:09:02.219Z,14.30
2018-02-10T10:10:34.040Z,13.70
2018-02-10T10:12:05.872Z,11.70
2018-02-10T10:13:37.679Z,13.40
2018-02-10T10:15:09.598Z,12.90
2018-02-10T10:16:41.318Z,13.80
2018-02-10T10:18:13.137Z,12.90
2018-02-10T10:19:44.959Z,14.60
2018-02-10T10:21:16.778Z,12.20
2018-02-10T10:22:48.598Z,15.20
2018-02-10T10:24:20.418Z,13.30
2018-02-10T10:25:52.238Z,13.00
2018-02-10T10:27:24.159Z,11.60
2018-02-10T10:28:55.880Z,13.60
2018-02-10T10:30:27.701Z,12.90
2018-02-10T10:31:59.522Z,13.00
2018-02-10T10:33:31.444Z,12.90
2018-02-10T10:35:03.182Z,13.70
2018-02-10T10:36:34.987Z,12.70
2018-02-10T10:38:06.809Z,14.70
2018-02-10T10:39:38.630Z,14.80
2018-02-10T10:41:10.451Z,12.50
2018-02-10T10:42:42.275Z,19.30
2018-02-10T10:44:14.094Z,13.00
2018-02-10T10:45:46.066Z,14.50
2018-02-10T10:47:17.737Z,13.00
2018-02-10T10:48:49.560Z,14.30
2018-02-10T10:50:21.409Z,13.20
2018-02-10T10:51:53.303Z,14.30
2018-02-10T10:53:25.028Z,15.80
2018-02-10T10:54:56.848Z,14.80
2018-02-10T10:56:28.670Z,13.10
2018-02-10T10:58:00.493Z,12.90
2018-02-10T10:59:32.316Z,12.40
2018-02-10T11:01:04.140Z,13.50
2018-02-10T11:02:35.963Z,11.70
2018-02-10T11:04:07.885Z,10.50
2018-02-10T11:05:39.608Z,12.70
2018-02-10T11:07:11.432Z,11.40
2018-02-10T11:08:43.254Z,12.90
2018-02-10T11:10:15.179Z,11.80
2018-02-10T11:11:46.901Z,12.30
2018-02-10T11:13:18.723Z,12.00
2018-02-10T11:14:50.548Z,12.30
2018-02-10T11:16:22.371Z,12.60
2018-02-10T11:17:54.195Z,12.40
2018-02-10T11:19:26.021Z,14.00
2018-02-10T11:20:57.844Z,12.50
2018-02-10T11:22:29.720Z,12.30
2018-02-10T11:24:01.494Z,11.20
2018-02-10T11:25:33.319Z,10.90
2018-02-10T11:27:05.143Z,9.20
2018-02-10T11:28:37.069Z,7.70
2018-02-10T11:30:08.794Z,9.50
2018-02-10T11:31:40.620Z,9.10
2018-02-10T11:33:12.444Z,8.40
2018-02-10T11:34:44.519Z,8.80
2018-02-10T11:36:16.093Z,7.80
2018-02-10T11:37:47.918Z,8.10
2018-02-10T11:39:19.742Z,7.90
2018-02-10T11:40:51.567Z,8.50
2018-02-10T11:42:23.391Z,7.70
2018-02-10T11:43:55.215Z,9.30
2018-02-10T11:45:27.040Z,8.00
2018-02-10T11:46:59.165Z,7.80
2018-02-10T11:48:30.688Z,8.00
2018-02-10T11:50:02.512Z,7.80
2018-02-10T11:51:34.338Z,8.90
2018-02-10T11:53:06.161Z,7.60
2018-02-10T11:54:37.986Z,8.00
2018-02-10T11:56:09.809Z,7.80
2018-02-10T11:57:41.634Z,8.90
2018-02-10T11:59:13.560Z,7.40
2018-02-10T12:00:45.282Z,8.40
2018-02-10T12:02:17.107Z,9.00
2018-02-10T12:03:48.932Z,8.40
2018-02-10T12:05:21.107Z,8.40
2018-02-10T12:06:52.595Z,8.10
2018-02-10T12:08:24.405Z,8.50
2018-02-10T12:09:56.229Z,9.70
2018-02-10T12:11:28.054Z,8.60
2018-02-10T12:12:59.907Z,8.60
2018-02-10T12:14:31.703Z,8.30
2018-02-10T12:16:03.531Z,8.20
2018-02-10T12:17:35.355Z,9.30
2018-02-10T12:19:07.176Z,9.30
2018-02-10T12:20:39.002Z,9.90
2018-02-10T12:22:10.826Z,10.30
2018-02-10T12:23:42.751Z,10.50
2018-02-10T12:25:14.524Z,11.30
2018-02-10T12:26:46.301Z,10.50
2018-02-10T12:28:18.127Z,10.50
2018-02-10T12:29:50.054Z,9.80
2018-02-10T12:31:21.778Z,10.30
2018-02-10T12:32:53.609Z,10.00
2018-02-10T12:34:25.431Z,10.00
2018-02-10T12:35:57.504Z,9.70
2018-02-10T12:37:29.079Z,10.80
2018-02-10T12:39:00.905Z,9.00
2018-02-10T12:40:32.731Z,8.80
2018-02-10T12:42:04.656Z,7.20
2018-02-10T12:43:36.383Z,7.40
2018-02-10T12:45:08.267Z,8.30
2018-02-10T12:46:40.040Z,7.00
2018-02-10T12:48:11.861Z,6.90
2018-02-10T12:49:43.688Z,8.10
2018-02-10T12:51:15.515Z,6.80
2018-02-10T12:52:47.342Z,7.30
2018-02-10T12:54:19.169Z,6.60
2018-02-10T12:55:50.996Z,6.10
2018-02-10T12:57:22.829Z,6.10
2018-02-10T12:58:54.649Z,6.30
2018-02-10T13:00:26.576Z,6.20
2018-02-10T13:01:58.304Z,5.80
2018-02-10T13:03:30.130Z,5.90
2018-02-10T13:05:01.957Z,5.90
2018-02-10T13:06:34.037Z,5.00
2018-02-10T13:08:05.611Z,5.40
2018-02-10T13:09:37.438Z,5.10
2018-02-10T13:11:09.265Z,5.80
2018-02-10T13:12:41.092Z,5.70
2018-02-10T13:14:12.930Z,5.80
2018-02-10T13:15:44.746Z,5.30
2018-02-10T13:17:16.573Z,5.20
2018-02-10T13:18:48.751Z,5.10
2018-02-10T13:20:20.227Z,5.10
2018-02-10T13:21:52.055Z,4.80
2018-02-10T13:23:23.882Z,4.50
2018-02-10T13:24:55.708Z,4.90
2018-02-10T13:26:27.536Z,5.20
2018-02-10T13:27:59.364Z,5.30
2018-02-10T13:29:31.207Z,5.00
2018-02-10T13:31:03.018Z,5.00
2018-02-10T13:32:34.861Z,5.40
2018-02-10T13:34:06.673Z,4.80
2018-02-10T13:35:38.503Z,5.30
2018-02-10T13:37:10.680Z,4.30
2018-02-10T13:38:42.157Z,4.80
2018-02-10T13:40:13.985Z,4.60
2018-02-10T13:41:45.813Z,5.10
2018-02-10T13:43:17.642Z,4.90
2018-02-10T13:44:49.470Z,5.00
2018-02-10T13:46:21.298Z,5.10
2018-02-10T13:47:53.127Z,6.20
2018-02-10T13:49:24.953Z,7.70
2018-02-10T13:50:56.781Z,6.20
2018-02-10T13:52:28.609Z,6.20
2018-02-10T13:54:00.441Z,5.90
2018-02-10T13:55:32.364Z,5.60
2018-02-10T13:57:04.091Z,5.10
2018-02-10T13:58:35.918Z,5.50
2018-02-10T14:00:07.746Z,4.80
2018-02-10T14:01:39.673Z,4.00
2018-02-10T14:03:11.400Z,4.00
2018-02-10T14:04:43.228Z,4.40
2018-02-10T14:06:15.056Z,4.20
2018-02-10T14:07:46.884Z,3.30
2018-02-10T14:09:18.711Z,4.00
2018-02-10T14:10:50.540Z,3.90
2018-02-10T14:12:22.367Z,3.70
2018-02-10T14:13:54.332Z,4.20
2018-02-10T14:15:26.024Z,4.80
2018-02-10T14:16:57.852Z,4.20
2018-02-10T14:18:29.680Z,4.40
2018-02-10T14:20:01.509Z,4.40
2018-02-10T14:21:33.338Z,5.30
2018-02-10T14:23:05.168Z,4.90
2018-02-10T14:24:36.996Z,4.50
2018-02-10T14:26:08.826Z,4.80
2018-02-10T14:27:40.655Z,4.70
2018-02-10T14:29:12.484Z,5.40
2018-02-10T14:30:44.313Z,4.30
2018-02-10T14:32:16.342Z,4.80
2018-02-10T14:33:47.972Z,4.20
2018-02-10T14:35:19.796Z,5.00
2018-02-10T14:36:51.624Z,4.90
2018-02-10T14:38:23.701Z,4.40
2018-02-10T14:39:55.279Z,3.40
2018-02-10T14:41:27.106Z,3.90
2018-02-10T14:42:58.934Z,3.70
2018-02-10T14:44:30.762Z,4.30
2018-02-10T14:46:02.591Z,4.10
2018-02-10T14:47:34.420Z,4.10
2018-02-10T14:49:06.248Z,3.70
2018-02-10T14:50:38.378Z,3.80
2018-02-10T14:52:14.758Z,3.80
2018-02-10T14:53:46.644Z,3.80
2018-02-10T14:55:13.566Z,3.60
2018-02-10T14:56:45.396Z,4.10
2018-02-10T14:58:17.226Z,4.10
2018-02-10T14:59:49.058Z,4.20
2018-02-10T15:01:20.886Z,4.20
2018-02-10T15:02:52.716Z,4.50
2018-02-10T15:04:24.546Z,3.80
2018-02-10T15:05:56.376Z,4.40
2018-02-10T15:07:28.206Z,3.80
2018-02-10T15:09:00.387Z,4.50
2018-02-10T15:10:31.865Z,5.00
2018-02-10T15:12:03.694Z,5.20
2018-02-10T15:13:35.522Z,5.50
2018-02-10T15:15:07.450Z,5.80
2018-02-10T15:16:39.178Z,5.40
2018-02-10T15:18:11.006Z,4.90
2018-02-10T15:19:42.834Z,5.00
2018-02-10T15:21:14.661Z,6.00
2018-02-10T15:22:46.492Z,4.60
2018-02-10T15:24:18.315Z,4.70
2018-02-10T15:25:50.143Z,4.90
2018-02-10T15:27:22.072Z,4.70
2018-02-10T15:28:53.801Z,5.20
2018-02-10T15:30:25.631Z,5.00
2018-02-10T15:31:57.476Z,5.20
2018-02-10T15:33:29.387Z,5.10
2018-02-10T15:35:01.116Z,5.50
2018-02-10T15:36:32.945Z,5.30
2018-02-10T15:38:04.774Z,5.60
2018-02-10T15:39:36.854Z,5.60
2018-02-10T15:41:08.433Z,5.80
2018-02-10T15:42:40.263Z,5.40
2018-02-10T15:44:12.091Z,6.00
2018-02-10T15:45:44.027Z,6.60
2018-02-10T15:47:15.748Z,6.90
2018-02-10T15:48:47.577Z,7.50
2018-02-10T15:50:19.408Z,8.20
2018-02-10T15:51:51.381Z,8.70
2018-02-10T15:53:23.058Z,8.70
2018-02-10T15:54:54.885Z,8.00
2018-02-10T15:56:26.711Z,8.40
2018-02-10T15:57:58.539Z,8.20
2018-02-10T15:59:30.367Z,8.00
2018-02-10T16:01:02.194Z,9.20
2018-02-10T16:02:34.023Z,9.00
2018-02-10T16:04:06.051Z,8.40
2018-02-10T16:05:37.678Z,8.30
2018-02-10T16:07:09.507Z,9.00
2018-02-10T16:08:41.335Z,8.00
2018-02-10T16:10:13.415Z,8.20
2018-02-10T16:11:44.994Z,9.00
2018-02-10T16:13:16.823Z,8.90
2018-02-10T16:14:48.655Z,8.50
2018-02-10T16:16:20.480Z,9.10
2018-02-10T16:17:52.309Z,8.30
2018-02-10T16:19:24.138Z,7.60
2018-02-10T16:20:55.969Z,5.30
2018-02-10T16:22:27.896Z,4.00
2018-02-10T16:23:59.625Z,3.30
2018-02-10T16:25:31.456Z,3.70
2018-02-10T16:27:03.284Z,2.90
2018-02-10T16:28:35.114Z,2.80
2018-02-10T16:30:06.945Z,3.30
2018-02-10T16:31:38.775Z,3.20
2018-02-10T16:33:10.605Z,2.70
2018-02-10T16:34:42.435Z,3.00
2018-02-10T16:36:14.266Z,3.10
2018-02-10T16:37:46.097Z,2.80
2018-02-10T16:39:17.928Z,3.10
2018-02-10T16:40:50.009Z,4.10
2018-02-10T16:42:21.590Z,4.00
2018-02-10T16:43:53.419Z,3.10
2018-02-10T16:45:25.250Z,3.00
2018-02-10T16:46:57.082Z,3.30
2018-02-10T16:48:28.911Z,3.50
2018-02-10T16:50:00.741Z,4.00
2018-02-10T16:51:32.569Z,4.10
2018-02-10T16:53:04.398Z,3.50
2018-02-10T16:54:36.227Z,3.20
2018-02-10T16:56:08.059Z,4.50
2018-02-10T16:57:39.885Z,2.80
2018-02-10T16:59:11.811Z,2.70
2018-02-10T17:00:43.539Z,2.50
2018-02-10T17:02:15.368Z,2.90
2018-02-10T17:03:47.196Z,2.50
2018-02-10T17:05:19.024Z,2.40
2018-02-10T17:06:50.852Z,3.20
2018-02-10T17:08:22.684Z,2.50
2018-02-10T17:09:54.509Z,2.50
2018-02-10T17:11:26.438Z,2.90
2018-02-10T17:12:58.165Z,3.00
2018-02-10T17:14:29.994Z,3.20
2018-02-10T17:16:01.823Z,2.50
2018-02-10T17:17:33.751Z,3.50
2018-02-10T17:19:05.481Z,4.10
2018-02-10T17:20:37.308Z,3.70
2018-02-10T17:22:09.139Z,2.90
2018-02-10T17:23:40.966Z,3.10
2018-02-10T17:25:12.794Z,3.10
2018-02-10T17:26:44.622Z,3.10
2018-02-10T17:28:16.451Z,3.20
2018-02-10T17:29:48.278Z,2.80
2018-02-10T17:31:20.107Z,2.70
2018-02-10T17:32:51.937Z,3.40
2018-02-10T17:34:23.766Z,3.20
2018-02-10T17:35:55.846Z,3.30
2018-02-10T17:37:27.424Z,3.30
2018-02-10T17:38:59.253Z,3.10
2018-02-10T17:40:31.082Z,3.20
2018-02-10T17:42:02.911Z,3.30
2018-02-10T17:43:34.739Z,3.10
2018-02-10T17:45:06.569Z,2.80
2018-02-10T17:46:38.396Z,2.90
2018-02-10T17:48:10.324Z,3.20
2018-02-10T17:49:42.051Z,2.90
2018-02-10T17:51:13.878Z,3.40
2018-02-10T17:52:45.704Z,3.30
2018-02-10T17:54:17.831Z,3.50
2018-02-10T17:55:49.357Z,3.90
2018-02-10T17:57:21.183Z,3.70
2018-02-10T17:58:53.008Z,3.80
2018-02-10T18:00:24.834Z,3.80
2018-02-10T18:01:56.659Z,3.40
2018-02-10T18:03:28.484Z,4.10
2018-02-10T18:05:00.309Z,3.90
2018-02-10T18:06:32.233Z,2.80
2018-02-10T18:08:03.958Z,2.20
2018-02-10T18:09:35.782Z,1.90
2018-02-10T18:11:07.605Z,1.30
2018-02-10T18:12:39.529Z,1.90
2018-02-10T18:14:11.254Z,2.00
2018-02-10T18:15:43.074Z,3.00
2018-02-10T18:17:14.896Z,3.30
2018-02-10T18:18:46.720Z,2.00
2018-02-10T18:20:18.537Z,2.50
2018-02-10T18:21:50.358Z,5.50
2018-02-10T18:23:22.177Z,1.40
2018-02-10T18:24:53.996Z,2.20
2018-02-10T18:26:25.817Z,2.10
2018-02-10T18:27:57.633Z,1.40
2018-02-10T18:29:29.450Z,3.00
2018-02-10T18:31:01.369Z,2.10
2018-02-10T18:32:33.086Z,3.60
2018-02-10T18:34:04.903Z,2.10
2018-02-10T18:35:36.720Z,4.20
2018-02-10T18:37:08.540Z,2.20
2018-02-10T18:38:40.356Z,2.50
2018-02-10T18:40:12.172Z,2.20
2018-02-10T18:41:43.989Z,3.60
2018-02-10T18:43:15.807Z,2.60
2018-02-10T18:44:47.624Z,2.00
2018-02-10T18:46:19.443Z,2.20
2018-02-10T18:47:51.261Z,3.30
2018-02-10T18:49:23.179Z,3.10
2018-02-10T18:50:54.896Z,1.70
2018-02-10T18:52:26.714Z,1.80
2018-02-10T18:53:58.533Z,2.00
2018-02-10T18:55:30.350Z,1.60
2018-02-10T18:57:02.170Z,2.70
2018-02-10T18:58:33.987Z,1.50
2018-02-10T19:00:05.804Z,2.10
2018-02-10T19:01:37.623Z,2.00
2018-02-10T19:03:09.441Z,1.90
2018-02-10T19:04:41.259Z,2.20
2018-02-10T19:06:13.077Z,3.40
2018-02-10T19:07:44.995Z,2.60
2018-02-10T19:09:16.713Z,3.10
2018-02-10T19:10:48.531Z,2.10
2018-02-10T19:12:20.350Z,2.40
2018-02-10T19:13:52.271Z,1.80
2018-02-10T19:15:23.985Z,2.20
2018-02-10T19:16:55.803Z,1.80
2018-02-10T19:18:27.620Z,2.90
2018-02-10T19:19:59.437Z,1.80
2018-02-10T19:21:31.255Z,2.00
2018-02-10T19:23:03.073Z,3.50
2018-02-10T19:24:34.891Z,3.30
2018-02-10T19:26:06.809Z,2.10
2018-02-10T19:27:38.525Z,3.00
2018-02-10T19:29:10.342Z,2.80
2018-02-10T19:30:42.159Z,3.70
2018-02-10T19:32:13.977Z,3.40
2018-02-10T19:33:45.798Z,2.90
2018-02-10T19:35:17.613Z,3.60
2018-02-10T19:36:49.429Z,3.30
2018-02-10T19:38:21.347Z,3.30
2018-02-10T19:39:53.064Z,3.30
2018-02-10T19:41:24.882Z,3.20
2018-02-10T19:42:56.699Z,3.10
2018-02-10T19:44:28.616Z,2.80
2018-02-10T19:46:00.334Z,2.60
2018-02-10T19:47:32.150Z,2.20
2018-02-10T19:49:04.003Z,2.20
2018-02-10T19:50:35.784Z,2.80
2018-02-10T19:52:07.601Z,2.60
2018-02-10T19:53:39.418Z,2.90
2018-02-10T19:55:11.235Z,4.60
2018-02-10T19:56:43.052Z,3.80
2018-02-10T19:58:14.869Z,4.50
2018-02-10T19:59:46.686Z,4.50
2018-02-10T20:01:18.502Z,4.90
2018-02-10T20:02:50.422Z,5.70
2018-02-10T20:04:22.137Z,5.20
2018-02-10T20:05:53.954Z,5.30
2018-02-10T20:07:25.770Z,5.00
2018-02-10T20:08:57.688Z,4.60
2018-02-10T20:10:29.406Z,4.40
2018-02-10T20:12:01.224Z,3.70
2018-02-10T20:13:33.040Z,4.40